sensor_id;sensor_type;location;lat;lon;timestamp;pressure;altitude;pressure_sealevel;temperature;humidity
6680;BME280;3376;42.664;23.346;2023-11-19T00:00:27;94476.00;;;4.14;100.00
6680;BME280;3376;42.664;23.346;2023-11-19T00:02:54;94471.44;;;4.08;100.00
6680;BME280;3376;42.664;23.346;2023-11-19T00:05:22;94458.34;;;4.11;100.00
6680;BME280;3376;42.664;23.346;2023-11-19T00:07:49;94458.22;;;3.93;100.00
6680;BME280;3376;42.664;23.346;2023-11-19T00:10:16;94482.22;;;4.02;100.00
6680;BME280;3376;42.664;23.346;2023-11-19T00:12:46;94481.69;;;4.08;100.00
6680;BME280;3376;42.664;23.346;2023-11-19T00:15:13;94468.19;;;4.06;100.00
6680;BME280;3376;42.664;23.346;2023-11-19T00:17:40;94469.81;;;4.07;100.00
6680;BME280;3376;42.664;23.346;2023-11-19T00:20:10;94481.41;;;4.11;100.00
6680;BME280;3376;42.664;23.346;2023-11-19T00:22:38;94476.69;;;4.06;100.00
6680;BME280;3376;42.664;23.346;2023-11-19T00:25:06;94478.19;;;3.99;100.00
6680;BME280;3376;42.664;23.346;2023-11-19T00:27:33;94466.84;;;4.02;100.00
6680;BME280;3376;42.664;23.346;2023-11-19T00:30:00;94460.13;;;3.91;100.00
6680;BME280;3376;42.664;23.346;2023-11-19T00:32:30;94479.91;;;4.18;100.00
6680;BME280;3376;42.664;23.346;2023-11-19T00:34:57;94480.06;;;4.16;100.00
6680;BME280;3376;42.664;23.346;2023-11-19T00:37:24;94473.00;;;4.28;100.00
6680;BME280;3376;42.664;23.346;2023-11-19T00:39:52;94469.22;;;4.22;100.00
6680;BME280;3376;42.664;23.346;2023-11-19T00:42:21;94484.78;;;4.11;100.00
6680;BME280;3376;42.664;23.346;2023-11-19T00:44:49;94483.53;;;4.15;100.00
6680;BME280;3376;42.664;23.346;2023-11-19T00:47:16;94476.56;;;3.98;100.00
6680;BME280;3376;42.664;23.346;2023-11-19T00:49:46;94495.28;;;4.08;100.00
6680;BME280;3376;42.664;23.346;2023-11-19T00:52:13;94487.88;;;4.05;100.00
6680;BME280;3376;42.664;23.346;2023-11-19T00:54:40;94495.03;;;4.11;100.00
6680;BME280;3376;42.664;23.346;2023-11-19T00:57:09;94487.06;;;4.14;100.00
6680;BME280;3376;42.664;23.346;2023-11-19T00:59:36;94490.31;;;4.07;100.00
6680;BME280;3376;42.664;23.346;2023-11-19T01:02:02;94479.13;;;4.08;100.00
6680;BME280;3376;42.664;23.346;2023-11-19T01:04:33;94465.78;;;3.95;100.00
6680;BME280;3376;42.664;23.346;2023-11-19T01:07:01;94458.25;;;3.84;100.00
6680;BME280;3376;42.664;23.346;2023-11-19T01:09:29;94496.78;;;4.11;100.00
6680;BME280;3376;42.664;23.346;2023-11-19T01:11:55;94496.50;;;4.14;100.00
6680;BME280;3376;42.664;23.346;2023-11-19T01:14:23;94491.53;;;4.03;100.00
6680;BME280;3376;42.664;23.346;2023-11-19T01:16:50;94504.75;;;3.98;100.00
6680;BME280;3376;42.664;23.346;2023-11-19T01:19:19;94490.59;;;4.04;100.00
6680;BME280;3376;42.664;23.346;2023-11-19T01:21:46;94478.44;;;4.06;100.00
6680;BME280;3376;42.664;23.346;2023-11-19T01:24:13;94487.75;;;4.07;100.00
6680;BME280;3376;42.664;23.346;2023-11-19T01:26:41;94485.84;;;4.09;100.00
6680;BME280;3376;42.664;23.346;2023-11-19T01:29:10;94483.00;;;4.12;100.00
6680;BME280;3376;42.664;23.346;2023-11-19T01:31:40;94497.47;;;4.13;100.00
6680;BME280;3376;42.664;23.346;2023-11-19T01:34:07;94502.19;;;4.08;100.00
6680;BME280;3376;42.664;23.346;2023-11-19T01:36:34;94500.41;;;4.08;100.00
6680;BME280;3376;42.664;23.346;2023-11-19T01:39:01;94498.00;;;4.07;100.00
6680;BME280;3376;42.664;23.346;2023-11-19T01:41:29;94501.38;;;3.98;100.00
6680;BME280;3376;42.664;23.346;2023-11-19T01:43:56;94495.84;;;3.93;100.00
6680;BME280;3376;42.664;23.346;2023-11-19T01:46:24;94497.88;;;3.99;100.00
6680;BME280;3376;42.664;23.346;2023-11-19T01:48:53;94510.44;;;3.92;100.00
6680;BME280;3376;42.664;23.346;2023-11-19T01:51:21;94483.31;;;3.71;100.00
6680;BME280;3376;42.664;23.346;2023-11-19T01:53:49;94505.06;;;3.86;100.00
6680;BME280;3376;42.664;23.346;2023-11-19T01:56:16;94515.16;;;3.78;100.00
6680;BME280;3376;42.664;23.346;2023-11-19T01:58:43;94522.56;;;3.81;100.00
6680;BME280;3376;42.664;23.346;2023-11-19T02:01:13;94523.78;;;3.77;100.00
6680;BME280;3376;42.664;23.346;2023-11-19T02:03:40;94516.75;;;3.69;100.00
6680;BME280;3376;42.664;23.346;2023-11-19T02:06:08;94524.59;;;3.68;100.00
6680;BME280;3376;42.664;23.346;2023-11-19T02:08:36;94516.91;;;3.68;100.00
6680;BME280;3376;42.664;23.346;2023-11-19T02:11:04;94498.84;;;3.69;100.00
6680;BME280;3376;42.664;23.346;2023-11-19T02:13:32;94494.13;;;3.84;100.00
6680;BME280;3376;42.664;23.346;2023-11-19T02:16:01;94506.25;;;3.82;100.00
6680;BME280;3376;42.664;23.346;2023-11-19T02:18:28;94516.75;;;3.88;100.00
6680;BME280;3376;42.664;23.346;2023-11-19T02:20:56;94510.81;;;3.88;100.00
6680;BME280;3376;42.664;23.346;2023-11-19T02:23:26;94484.16;;;3.62;100.00
6680;BME280;3376;42.664;23.346;2023-11-19T02:26:02;94493.84;;;3.87;100.00
6680;BME280;3376;42.664;23.346;2023-11-19T02:28:32;94503.53;;;3.93;100.00
6680;BME280;3376;42.664;23.346;2023-11-19T02:30:59;94498.44;;;3.83;100.00
6680;BME280;3376;42.664;23.346;2023-11-19T02:33:26;94510.28;;;3.94;100.00
6680;BME280;3376;42.664;23.346;2023-11-19T02:35:54;94501.13;;;3.91;100.00
6680;BME280;3376;42.664;23.346;2023-11-19T02:38:21;94495.44;;;3.88;100.00
6680;BME280;3376;42.664;23.346;2023-11-19T02:40:48;94498.72;;;3.80;100.00
6680;BME280;3376;42.664;23.346;2023-11-19T02:43:15;94501.00;;;3.64;100.00
6680;BME280;3376;42.664;23.346;2023-11-19T02:45:44;94494.66;;;3.58;100.00
6680;BME280;3376;42.664;23.346;2023-11-19T02:48:11;94487.63;;;3.60;100.00
6680;BME280;3376;42.664;23.346;2023-11-19T02:50:39;94503.16;;;3.59;100.00
6680;BME280;3376;42.664;23.346;2023-11-19T02:53:06;94493.44;;;3.53;100.00
6680;BME280;3376;42.664;23.346;2023-11-19T02:55:34;94500.16;;;3.63;100.00
6680;BME280;3376;42.664;23.346;2023-11-19T02:58:03;94473.75;;;3.44;100.00
6680;BME280;3376;42.664;23.346;2023-11-19T03:00:35;94488.06;;;3.56;100.00
6680;BME280;3376;42.664;23.346;2023-11-19T03:03:09;94488.47;;;3.61;100.00
6680;BME280;3376;42.664;23.346;2023-11-19T03:05:43;94489.00;;;3.45;100.00
6680;BME280;3376;42.664;23.346;2023-11-19T03:08:10;94486.28;;;3.47;100.00
6680;BME280;3376;42.664;23.346;2023-11-19T03:10:38;94492.63;;;3.52;100.00
6680;BME280;3376;42.664;23.346;2023-11-19T03:13:04;94491.00;;;3.51;100.00
6680;BME280;3376;42.664;23.346;2023-11-19T03:15:33;94445.69;;;3.14;100.00
6680;BME280;3376;42.664;23.346;2023-11-19T03:18:00;94501.09;;;3.43;100.00
6680;BME280;3376;42.664;23.346;2023-11-19T03:20:28;94495.19;;;3.52;100.00
6680;BME280;3376;42.664;23.346;2023-11-19T03:22:55;94466.47;;;3.30;100.00
6680;BME280;3376;42.664;23.346;2023-11-19T03:25:25;94487.38;;;3.44;100.00
6680;BME280;3376;42.664;23.346;2023-11-19T03:27:52;94499.91;;;3.47;100.00
6680;BME280;3376;42.664;23.346;2023-11-19T03:30:19;94487.50;;;3.33;100.00
6680;BME280;3376;42.664;23.346;2023-11-19T03:32:46;94496.81;;;3.44;100.00
6680;BME280;3376;42.664;23.346;2023-11-19T03:35:13;94504.59;;;3.33;100.00
6680;BME280;3376;42.664;23.346;2023-11-19T03:37:41;94508.78;;;3.34;100.00
6680;BME280;3376;42.664;23.346;2023-11-19T03:40:10;94505.81;;;3.29;100.00
6680;BME280;3376;42.664;23.346;2023-11-19T03:42:37;94508.38;;;3.38;100.00
6680;BME280;3376;42.664;23.346;2023-11-19T03:45:05;94520.50;;;3.36;100.00
6680;BME280;3376;42.664;23.346;2023-11-19T03:47:34;94521.59;;;3.34;100.00
6680;BME280;3376;42.664;23.346;2023-11-19T03:50:01;94511.88;;;3.28;100.00
6680;BME280;3376;42.664;23.346;2023-11-19T03:52:28;94531.00;;;3.33;100.00
6680;BME280;3376;42.664;23.346;2023-11-19T03:54:57;94543.44;;;3.47;100.00
6680;BME280;3376;42.664;23.346;2023-11-19T03:57:23;94515.41;;;3.46;100.00
6680;BME280;3376;42.664;23.346;2023-11-19T03:59:50;94533.47;;;3.63;100.00
6680;BME280;3376;42.664;23.346;2023-11-19T04:02:17;94540.34;;;3.53;100.00
6680;BME280;3376;42.664;23.346;2023-11-19T04:04:44;94541.28;;;3.52;100.00
6680;BME280;3376;42.664;23.346;2023-11-19T04:07:11;94533.97;;;3.48;100.00
6680;BME280;3376;42.664;23.346;2023-11-19T04:09:38;94533.47;;;3.44;100.00
6680;BME280;3376;42.664;23.346;2023-11-19T04:12:07;94552.34;;;3.53;100.00
6680;BME280;3376;42.664;23.346;2023-11-19T04:14:36;94509.44;;;3.26;100.00
6680;BME280;3376;42.664;23.346;2023-11-19T04:17:03;94545.31;;;3.45;100.00
6680;BME280;3376;42.664;23.346;2023-11-19T04:19:30;94540.72;;;3.39;100.00
6680;BME280;3376;42.664;23.346;2023-11-19T04:21:58;94543.44;;;3.47;100.00
6680;BME280;3376;42.664;23.346;2023-11-19T04:24:24;94547.47;;;3.50;100.00
6680;BME280;3376;42.664;23.346;2023-11-19T04:26:52;94538.47;;;3.55;100.00
6680;BME280;3376;42.664;23.346;2023-11-19T04:29:20;94538.03;;;3.50;100.00
6680;BME280;3376;42.664;23.346;2023-11-19T04:31:47;94549.09;;;3.51;100.00
6680;BME280;3376;42.664;23.346;2023-11-19T04:34:13;94529.53;;;3.40;100.00
6680;BME280;3376;42.664;23.346;2023-11-19T04:36:40;94546.13;;;3.46;100.00
6680;BME280;3376;42.664;23.346;2023-11-19T04:39:08;94560.53;;;3.47;100.00
6680;BME280;3376;42.664;23.346;2023-11-19T04:41:45;94566.22;;;3.50;100.00
6680;BME280;3376;42.664;23.346;2023-11-19T04:44:13;94568.09;;;3.48;100.00
6680;BME280;3376;42.664;23.346;2023-11-19T04:46:42;94574.72;;;3.51;100.00
6680;BME280;3376;42.664;23.346;2023-11-19T04:49:09;94572.16;;;3.60;100.00
6680;BME280;3376;42.664;23.346;2023-11-19T04:51:38;94573.63;;;3.53;100.00
6680;BME280;3376;42.664;23.346;2023-11-19T04:54:06;94566.91;;;3.52;100.00
6680;BME280;3376;42.664;23.346;2023-11-19T04:56:34;94577.50;;;3.48;100.00
6680;BME280;3376;42.664;23.346;2023-11-19T04:59:00;94557.31;;;3.45;100.00
6680;BME280;3376;42.664;23.346;2023-11-19T05:01:27;94575.00;;;3.57;100.00
6680;BME280;3376;42.664;23.346;2023-11-19T05:03:56;94571.47;;;3.58;100.00
6680;BME280;3376;42.664;23.346;2023-11-19T05:06:26;94587.97;;;3.75;100.00
6680;BME280;3376;42.664;23.346;2023-11-19T05:08:53;94599.13;;;3.65;100.00
6680;BME280;3376;42.664;23.346;2023-11-19T05:11:20;94571.31;;;3.41;100.00
6680;BME280;3376;42.664;23.346;2023-11-19T05:13:47;94605.72;;;3.67;100.00
6680;BME280;3376;42.664;23.346;2023-11-19T05:16:15;94610.34;;;3.73;100.00
6680;BME280;3376;42.664;23.346;2023-11-19T05:18:43;94602.38;;;3.67;100.00
6680;BME280;3376;42.664;23.346;2023-11-19T05:21:11;94595.47;;;3.57;100.00
6680;BME280;3376;42.664;23.346;2023-11-19T05:23:38;94602.88;;;3.60;100.00
6680;BME280;3376;42.664;23.346;2023-11-19T05:26:07;94605.19;;;3.63;100.00
6680;BME280;3376;42.664;23.346;2023-11-19T05:28:34;94593.47;;;3.61;100.00
6680;BME280;3376;42.664;23.346;2023-11-19T05:31:01;94582.13;;;3.63;100.00
6680;BME280;3376;42.664;23.346;2023-11-19T05:33:28;94594.94;;;3.63;100.00
6680;BME280;3376;42.664;23.346;2023-11-19T05:35:54;94596.56;;;3.65;100.00
6680;BME280;3376;42.664;23.346;2023-11-19T05:38:24;94606.13;;;3.63;100.00
6680;BME280;3376;42.664;23.346;2023-11-19T05:40:50;94599.13;;;3.65;100.00
6680;BME280;3376;42.664;23.346;2023-11-19T05:43:17;94600.88;;;3.54;100.00
6680;BME280;3376;42.664;23.346;2023-11-19T05:45:44;94601.97;;;3.62;100.00
6680;BME280;3376;42.664;23.346;2023-11-19T05:48:11;94616.59;;;3.50;100.00
6680;BME280;3376;42.664;23.346;2023-11-19T05:50:38;94619.75;;;3.63;100.00
6680;BME280;3376;42.664;23.346;2023-11-19T05:53:05;94615.31;;;3.65;100.00
6680;BME280;3376;42.664;23.346;2023-11-19T05:55:37;94604.94;;;3.67;100.00
6680;BME280;3376;42.664;23.346;2023-11-19T05:58:10;94589.13;;;3.52;100.00
6680;BME280;3376;42.664;23.346;2023-11-19T06:00:38;94603.00;;;3.49;100.00
6680;BME280;3376;42.664;23.346;2023-11-19T06:03:05;94610.28;;;3.44;100.00
6680;BME280;3376;42.664;23.346;2023-11-19T06:05:32;94610.16;;;3.46;100.00
6680;BME280;3376;42.664;23.346;2023-11-19T06:07:58;94614.66;;;3.33;100.00
6680;BME280;3376;42.664;23.346;2023-11-19T06:10:25;94606.63;;;3.47;100.00
6680;BME280;3376;42.664;23.346;2023-11-19T06:12:57;94633.06;;;3.47;100.00
6680;BME280;3376;42.664;23.346;2023-11-19T06:15:25;94610.63;;;3.30;100.00
6680;BME280;3376;42.664;23.346;2023-11-19T06:17:52;94622.13;;;3.45;100.00
6680;BME280;3376;42.664;23.346;2023-11-19T06:20:19;94600.97;;;3.43;100.00
6680;BME280;3376;42.664;23.346;2023-11-19T06:22:46;94616.09;;;3.66;100.00
6680;BME280;3376;42.664;23.346;2023-11-19T06:25:13;94617.34;;;3.71;100.00
6680;BME280;3376;42.664;23.346;2023-11-19T06:27:41;94620.31;;;3.76;100.00
6680;BME280;3376;42.664;23.346;2023-11-19T06:30:10;94616.28;;;3.74;100.00
6680;BME280;3376;42.664;23.346;2023-11-19T06:32:38;94621.91;;;3.68;100.00
6680;BME280;3376;42.664;23.346;2023-11-19T06:35:05;94620.31;;;3.67;100.00
6680;BME280;3376;42.664;23.346;2023-11-19T06:37:32;94580.19;;;3.37;100.00
6680;BME280;3376;42.664;23.346;2023-11-19T06:39:59;94622.28;;;3.53;100.00
6680;BME280;3376;42.664;23.346;2023-11-19T06:42:26;94640.06;;;3.55;100.00
6680;BME280;3376;42.664;23.346;2023-11-19T06:44:53;94631.34;;;3.67;100.00
6680;BME280;3376;42.664;23.346;2023-11-19T06:47:25;94634.31;;;3.72;100.00
6680;BME280;3376;42.664;23.346;2023-11-19T06:49:52;94617.84;;;3.55;100.00
6680;BME280;3376;42.664;23.346;2023-11-19T06:52:19;94640.38;;;3.71;100.00
6680;BME280;3376;42.664;23.346;2023-11-19T06:54:46;94632.44;;;3.74;100.00
6680;BME280;3376;42.664;23.346;2023-11-19T06:57:13;94635.28;;;3.81;100.00
6680;BME280;3376;42.664;23.346;2023-11-19T06:59:40;94640.16;;;3.84;100.00
6680;BME280;3376;42.664;23.346;2023-11-19T07:02:07;94640.28;;;3.82;100.00
6680;BME280;3376;42.664;23.346;2023-11-19T07:04:35;94643.41;;;3.86;100.00
6680;BME280;3376;42.664;23.346;2023-11-19T07:07:02;94646.22;;;3.83;100.00
6680;BME280;3376;42.664;23.346;2023-11-19T07:09:31;94626.25;;;3.77;100.00
6680;BME280;3376;42.664;23.346;2023-11-19T07:11:58;94653.09;;;3.92;100.00
6680;BME280;3376;42.664;23.346;2023-11-19T07:14:25;94644.06;;;3.88;100.00
6680;BME280;3376;42.664;23.346;2023-11-19T07:16:52;94661.34;;;3.86;100.00
6680;BME280;3376;42.664;23.346;2023-11-19T07:19:19;94665.38;;;3.88;100.00
6680;BME280;3376;42.664;23.346;2023-11-19T07:21:47;94670.91;;;3.84;100.00
6680;BME280;3376;42.664;23.346;2023-11-19T07:24:14;94668.88;;;3.87;100.00
6680;BME280;3376;42.664;23.346;2023-11-19T07:26:42;94661.56;;;3.83;100.00
6680;BME280;3376;42.664;23.346;2023-11-19T07:29:09;94672.25;;;3.88;100.00
6680;BME280;3376;42.664;23.346;2023-11-19T07:31:36;94669.94;;;3.85;100.00
6680;BME280;3376;42.664;23.346;2023-11-19T07:34:03;94686.81;;;3.87;100.00
6680;BME280;3376;42.664;23.346;2023-11-19T07:36:32;94692.50;;;3.91;100.00
6680;BME280;3376;42.664;23.346;2023-11-19T07:39:00;94684.81;;;3.91;100.00
6680;BME280;3376;42.664;23.346;2023-11-19T07:41:27;94640.34;;;3.52;100.00
6680;BME280;3376;42.664;23.346;2023-11-19T07:43:54;94693.00;;;3.85;100.00
6680;BME280;3376;42.664;23.346;2023-11-19T07:46:21;94708.94;;;3.98;100.00
6680;BME280;3376;42.664;23.346;2023-11-19T07:48:48;94691.53;;;3.92;100.00
6680;BME280;3376;42.664;23.346;2023-11-19T07:51:15;94697.72;;;3.89;99.87
6680;BME280;3376;42.664;23.346;2023-11-19T07:53:42;94691.81;;;3.98;100.00
6680;BME280;3376;42.664;23.346;2023-11-19T07:56:10;94695.06;;;4.10;100.00
6680;BME280;3376;42.664;23.346;2023-11-19T07:58:37;94714.38;;;4.04;99.18
6680;BME280;3376;42.664;23.346;2023-11-19T08:01:05;94686.84;;;4.06;99.82
6680;BME280;3376;42.664;23.346;2023-11-19T08:03:32;94692.63;;;3.99;100.00
6680;BME280;3376;42.664;23.346;2023-11-19T08:05:59;94707.47;;;3.95;98.81
6680;BME280;3376;42.664;23.346;2023-11-19T08:08:26;94715.97;;;3.96;99.48
6680;BME280;3376;42.664;23.346;2023-11-19T08:10:55;94717.44;;;3.89;98.50
6680;BME280;3376;42.664;23.346;2023-11-19T08:13:23;94701.66;;;3.84;100.00
6680;BME280;3376;42.664;23.346;2023-11-19T08:15:50;94724.16;;;3.80;99.19
6680;BME280;3376;42.664;23.346;2023-11-19T08:18:17;94725.63;;;3.83;98.28
6680;BME280;3376;42.664;23.346;2023-11-19T08:20:45;94691.06;;;3.68;100.00
6680;BME280;3376;42.664;23.346;2023-11-19T08:23:14;94669.06;;;3.55;99.53
6680;BME280;3376;42.664;23.346;2023-11-19T08:25:41;94725.22;;;3.78;99.20
6680;BME280;3376;42.664;23.346;2023-11-19T08:28:08;94682.69;;;3.66;100.00
6680;BME280;3376;42.664;23.346;2023-11-19T08:30:36;94717.16;;;3.82;98.87
6680;BME280;3376;42.664;23.346;2023-11-19T08:33:02;94725.81;;;4.00;100.00
6680;BME280;3376;42.664;23.346;2023-11-19T08:35:29;94718.84;;;4.21;100.00
6680;BME280;3376;42.664;23.346;2023-11-19T08:37:56;94723.19;;;4.40;98.37
6680;BME280;3376;42.664;23.346;2023-11-19T08:40:24;94727.00;;;4.55;94.85
6680;BME280;3376;42.664;23.346;2023-11-19T08:42:51;94547.88;;;3.36;94.28
6680;BME280;3376;42.664;23.346;2023-11-19T08:45:18;94715.09;;;4.35;94.63
6680;BME280;3376;42.664;23.346;2023-11-19T08:47:46;94727.13;;;4.63;95.49
6680;BME280;3376;42.664;23.346;2023-11-19T08:50:13;94728.34;;;4.40;95.99
6680;BME280;3376;42.664;23.346;2023-11-19T08:52:40;94718.91;;;4.69;95.38
6680;BME280;3376;42.664;23.346;2023-11-19T08:55:07;94719.97;;;4.76;93.34
6680;BME280;3376;42.664;23.346;2023-11-19T08:57:35;94490.59;;;3.37;92.68
6680;BME280;3376;42.664;23.346;2023-11-19T09:00:02;94738.56;;;5.16;92.94
6680;BME280;3376;42.664;23.346;2023-11-19T09:02:30;94703.22;;;5.93;87.76
6680;BME280;3376;42.664;23.346;2023-11-19T09:04:59;94733.91;;;5.94;84.41
6680;BME280;3376;42.664;23.346;2023-11-19T09:07:26;94721.91;;;6.13;85.46
6680;BME280;3376;42.664;23.346;2023-11-19T09:09:52;94723.56;;;7.01;84.67
6680;BME280;3376;42.664;23.346;2023-11-19T09:12:19;94727.78;;;8.71;76.26
6680;BME280;3376;42.664;23.346;2023-11-19T09:14:46;94716.47;;;9.60;72.92
6680;BME280;3376;42.664;23.346;2023-11-19T09:17:14;94707.03;;;9.91;71.05
6680;BME280;3376;42.664;23.346;2023-11-19T09:19:42;94706.50;;;9.33;71.07
6680;BME280;3376;42.664;23.346;2023-11-19T09:22:11;94719.41;;;8.69;72.68
6680;BME280;3376;42.664;23.346;2023-11-19T09:24:37;94712.63;;;7.76;74.62
6680;BME280;3376;42.664;23.346;2023-11-19T09:27:05;94729.84;;;6.81;76.45
6680;BME280;3376;42.664;23.346;2023-11-19T09:29:32;94732.97;;;6.40;79.22
6680;BME280;3376;42.664;23.346;2023-11-19T09:31:59;94735.56;;;6.13;80.04
6680;BME280;3376;42.664;23.346;2023-11-19T09:34:26;94725.09;;;5.97;81.91
6680;BME280;3376;42.664;23.346;2023-11-19T09:36:53;94698.97;;;6.19;81.79
6680;BME280;3376;42.664;23.346;2023-11-19T09:39:21;94656.34;;;5.99;81.93
6680;BME280;3376;42.664;23.346;2023-11-19T09:41:48;94695.31;;;6.22;82.27
6680;BME280;3376;42.664;23.346;2023-11-19T09:44:15;94660.56;;;6.18;82.87
6680;BME280;3376;42.664;23.346;2023-11-19T09:46:44;94683.03;;;5.98;81.10
6680;BME280;3376;42.664;23.346;2023-11-19T09:49:11;94660.66;;;5.71;82.53
6680;BME280;3376;42.664;23.346;2023-11-19T09:51:39;94668.69;;;5.59;83.35
6680;BME280;3376;42.664;23.346;2023-11-19T09:54:07;94657.88;;;5.55;84.96
6680;BME280;3376;42.664;23.346;2023-11-19T09:56:37;94650.28;;;5.63;85.64
6680;BME280;3376;42.664;23.346;2023-11-19T09:59:05;94654.94;;;5.50;85.40
6680;BME280;3376;42.664;23.346;2023-11-19T10:01:32;94578.41;;;4.90;87.11
6680;BME280;3376;42.664;23.346;2023-11-19T10:04:01;94654.00;;;5.51;88.01
6680;BME280;3376;42.664;23.346;2023-11-19T10:06:28;94625.00;;;5.32;87.20
6680;BME280;3376;42.664;23.346;2023-11-19T10:08:55;94657.38;;;5.79;85.91
6680;BME280;3376;42.664;23.346;2023-11-19T10:11:22;94648.69;;;6.77;83.18
6680;BME280;3376;42.664;23.346;2023-11-19T10:13:51;94653.25;;;7.60;79.03
6680;BME280;3376;42.664;23.346;2023-11-19T10:16:19;94626.44;;;8.61;73.88
6680;BME280;3376;42.664;23.346;2023-11-19T10:18:47;94649.03;;;8.83;70.38
6680;BME280;3376;42.664;23.346;2023-11-19T10:21:14;94663.69;;;8.42;70.82
6680;BME280;3376;42.664;23.346;2023-11-19T10:23:49;94643.09;;;8.08;69.57
6680;BME280;3376;42.664;23.346;2023-11-19T10:26:17;94644.94;;;7.74;71.43
6680;BME280;3376;42.664;23.346;2023-11-19T10:28:45;94653.97;;;7.45;72.84
6680;BME280;3376;42.664;23.346;2023-11-19T10:31:14;94657.63;;;7.08;73.95
6680;BME280;3376;42.664;23.346;2023-11-19T10:33:41;94621.53;;;6.40;74.88
6680;BME280;3376;42.664;23.346;2023-11-19T10:36:10;94622.56;;;6.47;76.72
6680;BME280;3376;42.664;23.346;2023-11-19T10:38:38;94509.59;;;5.92;77.37
6680;BME280;3376;42.664;23.346;2023-11-19T10:41:04;94617.63;;;6.96;73.50
6680;BME280;3376;42.664;23.346;2023-11-19T10:43:31;94633.97;;;7.72;72.12
6680;BME280;3376;42.664;23.346;2023-11-19T10:46:10;94646.91;;;8.38;70.32
6680;BME280;3376;42.664;23.346;2023-11-19T10:48:39;94639.19;;;8.38;67.39
6680;BME280;3376;42.664;23.346;2023-11-19T10:51:07;94640.22;;;8.11;66.81
6680;BME280;3376;42.664;23.346;2023-11-19T10:53:36;94644.19;;;8.56;66.47
6680;BME280;3376;42.664;23.346;2023-11-19T10:56:06;94635.63;;;8.39;66.63
6680;BME280;3376;42.664;23.346;2023-11-19T10:58:37;94642.56;;;8.47;66.50
6680;BME280;3376;42.664;23.346;2023-11-19T11:01:13;94636.28;;;8.73;65.32
6680;BME280;3376;42.664;23.346;2023-11-19T11:03:42;94623.03;;;9.00;75.70
6680;BME280;3376;42.664;23.346;2023-11-19T11:06:12;94616.94;;;9.56;73.73
6680;BME280;3376;42.664;23.346;2023-11-19T11:08:40;94634.66;;;9.67;62.79
6680;BME280;3376;42.664;23.346;2023-11-19T11:11:08;94623.06;;;9.55;62.69
6680;BME280;3376;42.664;23.346;2023-11-19T11:13:37;94599.63;;;9.65;60.63
6680;BME280;3376;42.664;23.346;2023-11-19T11:16:08;94605.94;;;9.93;59.76
6680;BME280;3376;42.664;23.346;2023-11-19T11:18:36;94604.59;;;10.13;59.13
6680;BME280;3376;42.664;23.346;2023-11-19T11:21:08;94600.94;;;9.91;57.24
6680;BME280;3376;42.664;23.346;2023-11-19T11:27:02;94604.47;;;9.60;59.63
6680;BME280;3376;42.664;23.346;2023-11-19T11:29:38;94596.03;;;9.66;60.33
6680;BME280;3376;42.664;23.346;2023-11-19T11:32:14;94616.22;;;9.70;58.57
6680;BME280;3376;42.664;23.346;2023-11-19T11:34:56;94578.53;;;9.37;59.70
6680;BME280;3376;42.664;23.346;2023-11-19T11:37:32;94600.00;;;9.84;59.24
6680;BME280;3376;42.664;23.346;2023-11-19T11:40:01;94595.50;;;9.78;59.73
6680;BME280;3376;42.664;23.346;2023-11-19T11:42:32;94575.53;;;9.64;59.97
6680;BME280;3376;42.664;23.346;2023-11-19T11:44:59;94581.22;;;9.90;59.01
6680;BME280;3376;42.664;23.346;2023-11-19T11:48:05;94571.72;;;9.83;60.18
6680;BME280;3376;42.664;23.346;2023-11-19T11:50:36;94572.41;;;10.07;59.42
6680;BME280;3376;42.664;23.346;2023-11-19T11:53:20;94547.69;;;10.27;57.55
6680;BME280;3376;42.664;23.346;2023-11-19T11:55:54;94581.09;;;10.59;55.49
6680;BME280;3376;42.664;23.346;2023-11-19T11:58:25;94581.91;;;10.83;56.73
6680;BME280;3376;42.664;23.346;2023-11-19T12:00:53;94581.69;;;11.21;55.22
6680;BME280;3376;42.664;23.346;2023-11-19T12:03:21;94575.28;;;11.46;54.56
6680;BME280;3376;42.664;23.346;2023-11-19T12:05:48;94592.44;;;11.47;53.70
6680;BME280;3376;42.664;23.346;2023-11-19T12:08:20;94590.63;;;11.62;51.78
6680;BME280;3376;42.664;23.346;2023-11-19T12:10:52;94578.91;;;11.81;52.47
6680;BME280;3376;42.664;23.346;2023-11-19T12:13:20;94569.16;;;11.98;51.89
6680;BME280;3376;42.664;23.346;2023-11-19T12:16:09;94562.19;;;12.19;51.74
6680;BME280;3376;42.664;23.346;2023-11-19T12:18:39;94566.09;;;12.51;49.84
6680;BME280;3376;42.664;23.346;2023-11-19T12:21:06;94566.03;;;12.23;50.30
6680;BME280;3376;42.664;23.346;2023-11-19T12:23:44;94549.41;;;12.39;50.81
6680;BME280;3376;42.664;23.346;2023-11-19T12:26:35;94549.06;;;12.27;49.31
6680;BME280;3376;42.664;23.346;2023-11-19T12:29:03;94545.22;;;12.02;50.81
6680;BME280;3376;42.664;23.346;2023-11-19T12:31:32;94550.88;;;12.27;50.71
6680;BME280;3376;42.664;23.346;2023-11-19T12:34:08;94533.47;;;12.27;50.54
6680;BME280;3376;42.664;23.346;2023-11-19T12:36:40;94533.50;;;12.48;49.79
6680;BME280;3376;42.664;23.346;2023-11-19T12:39:11;94532.44;;;12.64;49.23
6680;BME280;3376;42.664;23.346;2023-11-19T12:41:52;94518.94;;;12.54;49.77
6680;BME280;3376;42.664;23.346;2023-11-19T12:44:20;94527.03;;;12.65;50.03
6680;BME280;3376;42.664;23.346;2023-11-19T12:46:59;94507.38;;;12.56;48.53
6680;BME280;3376;42.664;23.346;2023-11-19T12:49:26;94526.69;;;12.47;50.99
6680;BME280;3376;42.664;23.346;2023-11-19T12:51:53;94522.38;;;12.33;49.20
6680;BME280;3376;42.664;23.346;2023-11-19T12:54:31;94516.53;;;12.10;50.67
6680;BME280;3376;42.664;23.346;2023-11-19T12:56:59;94524.88;;;12.06;52.14
6680;BME280;3376;42.664;23.346;2023-11-19T12:59:26;94521.97;;;11.94;51.98
6680;BME280;3376;42.664;23.346;2023-11-19T13:01:54;94509.38;;;11.91;52.11
6680;BME280;3376;42.664;23.346;2023-11-19T13:04:21;94511.34;;;11.89;52.59
6680;BME280;3376;42.664;23.346;2023-11-19T13:06:50;94508.22;;;12.15;51.36
6680;BME280;3376;42.664;23.346;2023-11-19T13:09:25;94506.28;;;12.23;50.67
6680;BME280;3376;42.664;23.346;2023-11-19T13:11:52;94507.25;;;12.43;49.28
6680;BME280;3376;42.664;23.346;2023-11-19T13:14:20;94506.78;;;12.33;51.59
6680;BME280;3376;42.664;23.346;2023-11-19T13:16:47;94457.81;;;12.30;65.77
6680;BME280;3376;42.664;23.346;2023-11-19T13:19:14;94494.63;;;13.17;60.73
6680;BME280;3376;42.664;23.346;2023-11-19T13:21:42;94515.19;;;13.86;48.98
6680;BME280;3376;42.664;23.346;2023-11-19T13:24:11;94489.28;;;13.72;47.73